sensor_id;sensor_type;location;lat;lon;timestamp;P1;durP1;ratioP1;P2;durP2;ratioP2
37284;SDS011;23172;53.550;9.964;2022-09-03T00:01:13;321.70;;;140.88;;
37284;SDS011;23172;53.550;9.964;2022-09-03T00:06:20;304.70;;;131.93;;
37284;SDS011;23172;53.550;9.964;2022-09-03T00:11:26;313.08;;;139.23;;
37284;SDS011;23172;53.550;9.964;2022-09-03T00:16:33;310.08;;;136.48;;
37284;SDS011;23172;53.550;9.964;2022-09-03T00:21:43;287.60;;;110.85;;
37284;SDS011;23172;53.550;9.964;2022-09-03T00:26:49;321.95;;;138.77;;
37284;SDS011;23172;53.550;9.964;2022-09-03T00:31:55;332.88;;;154.52;;
37284;SDS011;23172;53.550;9.964;2022-09-03T00:37:02;353.77;;;156.23;;
37284;SDS011;23172;53.550;9.964;2022-09-03T00:42:17;333.80;;;158.90;;
37284;SDS011;23172;53.550;9.964;2022-09-03T00:47:33;325.30;;;141.93;;
37284;SDS011;23172;53.550;9.964;2022-09-03T00:52:47;405.95;;;179.40;;
37284;SDS011;23172;53.550;9.964;2022-09-03T00:58:01;541.53;;;242.23;;
37284;SDS011;23172;53.550;9.964;2022-09-03T01:03:16;529.80;;;235.05;;
37284;SDS011;23172;53.550;9.964;2022-09-03T01:08:35;483.38;;;201.98;;
37284;SDS011;23172;53.550;9.964;2022-09-03T01:13:53;496.40;;;214.43;;
37284;SDS011;23172;53.550;9.964;2022-09-03T01:19:03;523.85;;;205.88;;
37284;SDS011;23172;53.550;9.964;2022-09-03T01:24:27;450.27;;;214.40;;
37284;SDS011;23172;53.550;9.964;2022-09-03T01:30:02;525.40;;;220.68;;
37284;SDS011;23172;53.550;9.964;2022-09-03T01:35:07;664.33;;;301.73;;
37284;SDS011;23172;53.550;9.964;2022-09-03T01:40:16;603.30;;;278.98;;
37284;SDS011;23172;53.550;9.964;2022-09-03T01:45:37;520.30;;;220.95;;
37284;SDS011;23172;53.550;9.964;2022-09-03T01:50:49;518.47;;;227.18;;
37284;SDS011;23172;53.550;9.964;2022-09-03T01:56:07;537.08;;;224.77;;
37284;SDS011;23172;53.550;9.964;2022-09-03T02:01:20;501.20;;;199.70;;
37284;SDS011;23172;53.550;9.964;2022-09-03T02:06:26;591.65;;;267.67;;
37284;SDS011;23172;53.550;9.964;2022-09-03T02:11:30;504.45;;;214.27;;
37284;SDS011;23172;53.550;9.964;2022-09-03T02:16:34;557.55;;;219.73;;
37284;SDS011;23172;53.550;9.964;2022-09-03T02:21:38;525.10;;;218.68;;
37284;SDS011;23172;53.550;9.964;2022-09-03T02:26:44;561.22;;;221.57;;
37284;SDS011;23172;53.550;9.964;2022-09-03T02:31:47;532.55;;;221.05;;
37284;SDS011;23172;53.550;9.964;2022-09-03T02:36:49;617.53;;;273.98;;
37284;SDS011;23172;53.550;9.964;2022-09-03T02:41:52;512.35;;;233.18;;
37284;SDS011;23172;53.550;9.964;2022-09-03T02:46:58;547.72;;;235.05;;
37284;SDS011;23172;53.550;9.964;2022-09-03T02:52:02;711.75;;;311.20;;
37284;SDS011;23172;53.550;9.964;2022-09-03T02:57:09;539.75;;;249.00;;
37284;SDS011;23172;53.550;9.964;2022-09-03T03:02:14;599.75;;;298.52;;
37284;SDS011;23172;53.550;9.964;2022-09-03T03:07:15;662.13;;;299.02;;
37284;SDS011;23172;53.550;9.964;2022-09-03T03:12:17;595.85;;;261.98;;
37284;SDS011;23172;53.550;9.964;2022-09-03T03:17:21;563.65;;;270.70;;
37284;SDS011;23172;53.550;9.964;2022-09-03T03:22:23;542.33;;;259.88;;
37284;SDS011;23172;53.550;9.964;2022-09-03T03:27:25;719.47;;;327.85;;
37284;SDS011;23172;53.550;9.964;2022-09-03T03:32:28;636.40;;;288.23;;
37284;SDS011;23172;53.550;9.964;2022-09-03T03:37:30;631.80;;;283.15;;
37284;SDS011;23172;53.550;9.964;2022-09-03T03:42:34;648.55;;;328.10;;
37284;SDS011;23172;53.550;9.964;2022-09-03T03:47:38;644.38;;;304.48;;
37284;SDS011;23172;53.550;9.964;2022-09-03T03:52:40;640.17;;;324.80;;
37284;SDS011;23172;53.550;9.964;2022-09-03T03:57:42;635.65;;;285.50;;
37284;SDS011;23172;53.550;9.964;2022-09-03T04:02:46;747.22;;;330.15;;
37284;SDS011;23172;53.550;9.964;2022-09-03T04:07:47;679.92;;;332.02;;
37284;SDS011;23172;53.550;9.964;2022-09-03T04:12:52;576.63;;;268.17;;
37284;SDS011;23172;53.550;9.964;2022-09-03T04:17:56;612.47;;;293.50;;
37284;SDS011;23172;53.550;9.964;2022-09-03T04:22:58;592.63;;;279.92;;
37284;SDS011;23172;53.550;9.964;2022-09-03T04:28:01;602.50;;;272.67;;
37284;SDS011;23172;53.550;9.964;2022-09-03T04:33:05;585.20;;;259.83;;
37284;SDS011;23172;53.550;9.964;2022-09-03T04:38:07;600.28;;;257.70;;
37284;SDS011;23172;53.550;9.964;2022-09-03T04:43:09;519.65;;;208.73;;
37284;SDS011;23172;53.550;9.964;2022-09-03T04:48:12;535.42;;;211.77;;
37284;SDS011;23172;53.550;9.964;2022-09-03T04:53:13;491.55;;;206.23;;
37284;SDS011;23172;53.550;9.964;2022-09-03T04:58:15;600.67;;;256.98;;
37284;SDS011;23172;53.550;9.964;2022-09-03T05:03:19;525.00;;;227.57;;
37284;SDS011;23172;53.550;9.964;2022-09-03T05:08:22;567.15;;;228.70;;
37284;SDS011;23172;53.550;9.964;2022-09-03T05:13:24;614.70;;;265.88;;
37284;SDS011;23172;53.550;9.964;2022-09-03T05:18:28;556.40;;;217.38;;
37284;SDS011;23172;53.550;9.964;2022-09-03T05:23:31;585.85;;;276.60;;
37284;SDS011;23172;53.550;9.964;2022-09-03T05:28:36;626.53;;;287.85;;
37284;SDS011;23172;53.550;9.964;2022-09-03T05:33:41;794.92;;;376.10;;
37284;SDS011;23172;53.550;9.964;2022-09-03T05:38:44;585.20;;;286.27;;
37284;SDS011;23172;53.550;9.964;2022-09-03T05:43:47;583.60;;;259.63;;
37284;SDS011;23172;53.550;9.964;2022-09-03T05:48:56;798.25;;;351.08;;
37284;SDS011;23172;53.550;9.964;2022-09-03T05:53:59;682.63;;;334.17;;
37284;SDS011;23172;53.550;9.964;2022-09-03T05:59:02;746.85;;;352.92;;
37284;SDS011;23172;53.550;9.964;2022-09-03T06:04:08;1016.05;;;464.67;;
37284;SDS011;23172;53.550;9.964;2022-09-03T06:09:12;951.35;;;431.63;;
37284;SDS011;23172;53.550;9.964;2022-09-03T06:14:15;1075.40;;;515.05;;
37284;SDS011;23172;53.550;9.964;2022-09-03T06:19:22;865.17;;;432.80;;
37284;SDS011;23172;53.550;9.964;2022-09-03T06:24:23;990.55;;;472.30;;
37284;SDS011;23172;53.550;9.964;2022-09-03T06:29:26;1015.30;;;475.60;;
37284;SDS011;23172;53.550;9.964;2022-09-03T06:34:29;1004.65;;;458.67;;
37284;SDS011;23172;53.550;9.964;2022-09-03T06:39:31;1082.55;;;511.15;;
37284;SDS011;23172;53.550;9.964;2022-09-03T06:44:33;912.85;;;439.30;;
37284;SDS011;23172;53.550;9.964;2022-09-03T06:49:37;768.60;;;379.10;;
37284;SDS011;23172;53.550;9.964;2022-09-03T06:54:38;817.80;;;414.02;;
37284;SDS011;23172;53.550;9.964;2022-09-03T06:59:41;774.65;;;400.20;;
37284;SDS011;23172;53.550;9.964;2022-09-03T07:04:44;1054.72;;;495.17;;
37284;SDS011;23172;53.550;9.964;2022-09-03T07:09:46;916.25;;;491.60;;
37284;SDS011;23172;53.550;9.964;2022-09-03T07:14:48;860.65;;;435.75;;
37284;SDS011;23172;53.550;9.964;2022-09-03T07:19:51;1071.28;;;507.23;;
37284;SDS011;23172;53.550;9.964;2022-09-03T07:24:53;944.83;;;469.80;;
37284;SDS011;23172;53.550;9.964;2022-09-03T07:29:54;1154.53;;;577.15;;
37284;SDS011;23172;53.550;9.964;2022-09-03T07:34:58;1262.43;;;573.47;;
37284;SDS011;23172;53.550;9.964;2022-09-03T07:39:59;1237.65;;;641.67;;
37284;SDS011;23172;53.550;9.964;2022-09-03T07:45:01;1330.57;;;661.80;;
37284;SDS011;23172;53.550;9.964;2022-09-03T07:50:06;1247.00;;;640.92;;
37284;SDS011;23172;53.550;9.964;2022-09-03T07:55:08;1432.55;;;717.65;;
37284;SDS011;23172;53.550;9.964;2022-09-03T08:00:11;1762.35;;;854.17;;
37284;SDS011;23172;53.550;9.964;2022-09-03T08:05:15;1602.00;;;732.25;;
37284;SDS011;23172;53.550;9.964;2022-09-03T08:10:20;1521.45;;;792.97;;
37284;SDS011;23172;53.550;9.964;2022-09-03T08:15:23;1944.20;;;889.78;;
37284;SDS011;23172;53.550;9.964;2022-09-03T08:20:27;1880.15;;;802.42;;
37284;SDS011;23172;53.550;9.964;2022-09-03T08:25:28;1999.90;;;997.17;;
37284;SDS011;23172;53.550;9.964;2022-09-03T08:30:30;1999.90;;;999.90;;
37284;SDS011;23172;53.550;9.964;2022-09-03T08:35:35;1999.90;;;999.90;;
37284;SDS011;23172;53.550;9.964;2022-09-03T08:40:37;1999.90;;;999.90;;
37284;SDS011;23172;53.550;9.964;2022-09-03T08:45:39;1999.90;;;999.90;;
37284;SDS011;23172;53.550;9.964;2022-09-03T08:50:43;1999.90;;;999.90;;
37284;SDS011;23172;53.550;9.964;2022-09-03T08:55:49;1999.90;;;886.40;;
37284;SDS011;23172;53.550;9.964;2022-09-03T09:00:54;1999.90;;;904.28;;
37284;SDS011;23172;53.550;9.964;2022-09-03T09:06:06;1999.90;;;843.17;;
37284;SDS011;23172;53.550;9.964;2022-09-03T09:11:15;1999.90;;;796.40;;
37284;SDS011;23172;53.550;9.964;2022-09-03T09:16:28;1999.90;;;881.97;;
37284;SDS011;23172;53.550;9.964;2022-09-03T09:21:40;1999.90;;;865.03;;
37284;SDS011;23172;53.550;9.964;2022-09-03T09:26:47;1999.90;;;999.90;;
37284;SDS011;23172;53.550;9.964;2022-09-03T09:31:58;1999.90;;;837.00;;
37284;SDS011;23172;53.550;9.964;2022-09-03T09:37:02;1999.90;;;984.47;;
37284;SDS011;23172;53.550;9.964;2022-09-03T09:42:06;1999.90;;;911.47;;
37284;SDS011;23172;53.550;9.964;2022-09-03T09:47:10;1999.90;;;999.90;;
37284;SDS011;23172;53.550;9.964;2022-09-03T09:52:18;1999.90;;;999.90;;
37284;SDS011;23172;53.550;9.964;2022-09-03T09:57:24;1999.90;;;999.90;;
37284;SDS011;23172;53.550;9.964;2022-09-03T10:02:26;1999.90;;;999.90;;
37284;SDS011;23172;53.550;9.964;2022-09-03T10:07:30;1999.90;;;999.90;;
37284;SDS011;23172;53.550;9.964;2022-09-03T10:12:34;1999.90;;;999.90;;
37284;SDS011;23172;53.550;9.964;2022-09-03T10:17:47;1999.90;;;999.90;;
37284;SDS011;23172;53.550;9.964;2022-09-03T10:23:05;1999.90;;;999.90;;
37284;SDS011;23172;53.550;9.964;2022-09-03T10:28:11;1999.90;;;999.90;;
37284;SDS011;23172;53.550;9.964;2022-09-03T10:33:15;1999.90;;;999.90;;
37284;SDS011;23172;53.550;9.964;2022-09-03T10:38:25;1999.90;;;999.90;;
37284;SDS011;23172;53.550;9.964;2022-09-03T10:43:36;1999.90;;;999.90;;
37284;SDS011;23172;53.550;9.964;2022-09-03T10:48:54;1999.90;;;999.90;;
37284;SDS011;23172;53.550;9.964;2022-09-03T10:54:18;1999.90;;;999.90;;
37284;SDS011;23172;53.550;9.964;2022-09-03T10:59:34;1999.90;;;999.90;;
37284;SDS011;23172;53.550;9.964;2022-09-03T11:04:45;1999.90;;;999.90;;
37284;SDS011;23172;53.550;9.964;2022-09-03T11:09:59;1999.90;;;999.90;;
37284;SDS011;23172;53.550;9.964;2022-09-03T11:15:12;1999.90;;;999.90;;
37284;SDS011;23172;53.550;9.964;2022-09-03T11:20:21;1990.05;;;999.90;;
37284;SDS011;23172;53.550;9.964;2022-09-03T11:25:26;1896.75;;;999.90;;
37284;SDS011;23172;53.550;9.964;2022-09-03T11:30:34;1911.05;;;999.90;;
37284;SDS011;23172;53.550;9.964;2022-09-03T11:35:40;1898.75;;;999.90;;
37284;SDS011;23172;53.550;9.964;2022-09-03T11:40:55;1924.55;;;999.90;;
37284;SDS011;23172;53.550;9.964;2022-09-03T11:46:00;1868.55;;;999.90;;
37284;SDS011;23172;53.550;9.964;2022-09-03T11:51:14;1979.50;;;999.90;;
37284;SDS011;23172;53.550;9.964;2022-09-03T11:56:21;1953.72;;;999.90;;
37284;SDS011;23172;53.550;9.964;2022-09-03T12:01:24;1910.63;;;999.90;;
37284;SDS011;23172;53.550;9.964;2022-09-03T12:06:37;1799.82;;;999.90;;
37284;SDS011;23172;53.550;9.964;2022-09-03T12:11:52;1946.18;;;999.90;;
37284;SDS011;23172;53.550;9.964;2022-09-03T12:17:07;1999.90;;;999.90;;
37284;SDS011;23172;53.550;9.964;2022-09-03T12:22:15;1999.90;;;999.90;;
37284;SDS011;23172;53.550;9.964;2022-09-03T12:27:20;1999.90;;;999.90;;
37284;SDS011;23172;53.550;9.964;2022-09-03T12:32:25;1999.90;;;999.90;;
37284;SDS011;23172;53.550;9.964;2022-09-03T12:37:31;1999.90;;;999.90;;
37284;SDS011;23172;53.550;9.964;2022-09-03T12:42:37;1999.90;;;999.90;;
37284;SDS011;23172;53.550;9.964;2022-09-03T12:47:38;1999.90;;;999.90;;
37284;SDS011;23172;53.550;9.964;2022-09-03T12:52:41;1999.90;;;999.90;;
37284;SDS011;23172;53.550;9.964;2022-09-03T12:57:47;1999.90;;;999.90;;
37284;SDS011;23172;53.550;9.964;2022-09-03T13:02:52;1886.20;;;999.90;;
37284;SDS011;23172;53.550;9.964;2022-09-03T13:07:59;1893.55;;;999.90;;
37284;SDS011;23172;53.550;9.964;2022-09-03T13:13:06;1806.22;;;999.90;;
37284;SDS011;23172;53.550;9.964;2022-09-03T13:18:22;1704.60;;;999.90;;
37284;SDS011;23172;53.550;9.964;2022-09-03T13:23:34;1894.03;;;999.90;;
37284;SDS011;23172;53.550;9.964;2022-09-03T13:28:53;1710.93;;;999.90;;
37284;SDS011;23172;53.550;9.964;2022-09-03T13:34:15;1692.60;;;999.90;;
37284;SDS011;23172;53.550;9.964;2022-09-03T13:39:25;1671.40;;;999.90;;
37284;SDS011;23172;53.550;9.964;2022-09-03T13:44:34;1608.82;;;999.90;;
37284;SDS011;23172;53.550;9.964;2022-09-03T13:49:42;1402.70;;;999.90;;
37284;SDS011;23172;53.550;9.964;2022-09-03T13:55:11;1575.75;;;999.90;;
37284;SDS011;23172;53.550;9.964;2022-09-03T14:00:26;1647.65;;;999.90;;
37284;SDS011;23172;53.550;9.964;2022-09-03T14:05:33;1588.82;;;999.90;;
37284;SDS011;23172;53.550;9.964;2022-09-03T14:10:50;1539.03;;;999.90;;
37284;SDS011;23172;53.550;9.964;2022-09-03T14:15:59;1671.82;;;999.90;;
37284;SDS011;23172;53.550;9.964;2022-09-03T14:21:07;1392.05;;;999.90;;
37284;SDS011;23172;53.550;9.964;2022-09-03T14:26:15;1465.22;;;999.90;;
37284;SDS011;23172;53.550;9.964;2022-09-03T14:31:22;1278.93;;;999.90;;
37284;SDS011;23172;53.550;9.964;2022-09-03T14:36:35;1585.93;;;999.90;;
37284;SDS011;23172;53.550;9.964;2022-09-03T14:41:56;1258.70;;;999.90;;
37284;SDS011;23172;53.550;9.964;2022-09-03T14:47:23;1311.50;;;999.90;;
37284;SDS011;23172;53.550;9.964;2022-09-03T14:52:47;1505.38;;;999.90;;
37284;SDS011;23172;53.550;9.964;2022-09-03T14:58:04;1811.68;;;999.90;;
37284;SDS011;23172;53.550;9.964;2022-09-03T15:09:14;1383.82;;;960.88;;
37284;SDS011;23172;53.550;9.964;2022-09-03T15:14:25;1614.60;;;999.90;;
37284;SDS011;23172;53.550;9.964;2022-09-03T15:19:42;1702.03;;;999.90;;
37284;SDS011;23172;53.550;9.964;2022-09-03T15:25:02;1923.70;;;999.90;;
37284;SDS011;23172;53.550;9.964;2022-09-03T15:30:13;1999.90;;;999.90;;
37284;SDS011;23172;53.550;9.964;2022-09-03T15:35:29;1999.90;;;999.90;;
37284;SDS011;23172;53.550;9.964;2022-09-03T15:40:53;1999.90;;;999.90;;
37284;SDS011;23172;53.550;9.964;2022-09-03T15:45:59;1999.90;;;999.90;;
37284;SDS011;23172;53.550;9.964;2022-09-03T15:51:12;1999.90;;;999.90;;
37284;SDS011;23172;53.550;9.964;2022-09-03T15:56:20;1999.90;;;999.90;;
37284;SDS011;23172;53.550;9.964;2022-09-03T16:01:30;1999.90;;;999.90;;
37284;SDS011;23172;53.550;9.964;2022-09-03T16:06:40;1999.90;;;999.90;;
37284;SDS011;23172;53.550;9.964;2022-09-03T16:11:53;1999.90;;;999.90;;
37284;SDS011;23172;53.550;9.964;2022-09-03T16:17:02;1999.90;;;999.90;;
37284;SDS011;23172;53.550;9.964;2022-09-03T16:22:11;1999.90;;;999.90;;
37284;SDS011;23172;53.550;9.964;2022-09-03T16:27:19;1999.90;;;999.90;;
37284;SDS011;23172;53.550;9.964;2022-09-03T16:32:27;1999.90;;;999.90;;
37284;SDS011;23172;53.550;9.964;2022-09-03T16:37:38;1999.90;;;999.90;;
37284;SDS011;23172;53.550;9.964;2022-09-03T16:42:56;1999.90;;;999.90;;
37284;SDS011;23172;53.550;9.964;2022-09-03T16:48:06;1999.90;;;999.90;;
37284;SDS011;23172;53.550;9.964;2022-09-03T16:53:19;1999.90;;;999.90;;
37284;SDS011;23172;53.550;9.964;2022-09-03T16:58:32;1999.90;;;999.90;;
37284;SDS011;23172;53.550;9.964;2022-09-03T17:03:56;1999.90;;;999.90;;
37284;SDS011;23172;53.550;9.964;2022-09-03T17:09:13;1999.90;;;999.90;;
37284;SDS011;23172;53.550;9.964;2022-09-03T17:14:31;1999.90;;;999.90;;
37284;SDS011;23172;53.550;9.964;2022-09-03T17:20:04;1999.90;;;999.90;;
37284;SDS011;23172;53.550;9.964;2022-09-03T17:25:16;1999.90;;;999.90;;
37284;SDS011;23172;53.550;9.964;2022-09-03T17:30:27;1999.90;;;999.90;;
37284;SDS011;23172;53.550;9.964;2022-09-03T17:35:40;1999.90;;;999.90;;
37284;SDS011;23172;53.550;9.964;2022-09-03T17:40:52;1999.90;;;999.90;;
37284;SDS011;23172;53.550;9.964;2022-09-03T17:46:05;1999.90;;;999.90;;
37284;SDS011;23172;53.550;9.964;2022-09-03T17:51:15;1999.90;;;999.90;;
37284;SDS011;23172;53.550;9.964;2022-09-03T17:56:27;1999.90;;;999.90;;
37284;SDS011;23172;53.550;9.964;2022-09-03T18:01:33;1999.90;;;999.90;;
37284;SDS011;23172;53.550;9.964;2022-09-03T18:06:41;1999.90;;;999.90;;
37284;SDS011;23172;53.550;9.964;2022-09-03T18:11:54;1999.90;;;999.90;;
37284;SDS011;23172;53.550;9.964;2022-09-03T18:17:09;1999.90;;;999.90;;
37284;SDS011;23172;53.550;9.964;2022-09-03T18:22:17;1999.90;;;999.90;;
37284;SDS011;23172;53.550;9.964;2022-09-03T18:27:41;1999.90;;;999.90;;
37284;SDS011;23172;53.550;9.964;2022-09-03T18:33:05;1999.90;;;999.90;;
37284;SDS011;23172;53.550;9.964;2022-09-03T18:38:26;1999.90;;;999.90;;
37284;SDS011;23172;53.550;9.964;2022-09-03T18:43:49;1999.90;;;999.90;;
37284;SDS011;23172;53.550;9.964;2022-09-03T18:49:16;1999.90;;;999.90;;
37284;SDS011;23172;53.550;9.964;2022-09-03T18:54:47;1999.90;;;999.90;;
37284;SDS011;23172;53.550;9.964;2022-09-03T19:00:17;1999.90;;;999.90;;
37284;SDS011;23172;53.550;9.964;2022-09-03T19:05:41;1999.90;;;999.90;;
37284;SDS011;23172;53.550;9.964;2022-09-03T19:11:16;1999.90;;;999.90;;
37284;SDS011;23172;53.550;9.964;2022-09-03T19:16:48;1999.90;;;999.90;;
37284;SDS011;23172;53.550;9.964;2022-09-03T19:22:18;1999.90;;;999.90;;
37284;SDS011;23172;53.550;9.964;2022-09-03T19:27:47;1999.90;;;999.90;;
37284;SDS011;23172;53.550;9.964;2022-09-03T19:33:18;1999.90;;;999.90;;
37284;SDS011;23172;53.550;9.964;2022-09-03T19:38:48;1999.90;;;999.90;;
37284;SDS011;23172;53.550;9.964;2022-09-03T19:44:18;1999.90;;;999.90;;
37284;SDS011;23172;53.550;9.964;2022-09-03T19:49:50;1999.90;;;999.90;;
37284;SDS011;23172;53.550;9.964;2022-09-03T19:55:23;1999.90;;;999.90;;
37284;SDS011;23172;53.550;9.964;2022-09-03T20:00:44;1999.90;;;999.90;;
37284;SDS011;23172;53.550;9.964;2022-09-03T20:06:04;1999.90;;;999.90;;
37284;SDS011;23172;53.550;9.964;2022-09-03T20:11:27;1999.90;;;999.90;;
37284;SDS011;23172;53.550;9.964;2022-09-03T20:16:31;641.97;;;334.60;;
37284;SDS011;23172;53.550;9.964;2022-09-03T20:21:41;1909.60;;;999.90;;
37284;SDS011;23172;53.550;9.964;2022-09-03T20:26:52;363.90;;;192.80;;
37284;SDS011;23172;53.550;9.964;2022-09-03T20:32:04;773.97;;;426.85;;
37284;SDS011;23172;53.550;9.964;2022-09-03T20:37:14;1235.05;;;648.00;;
37284;SDS011;23172;53.550;9.964;2022-09-03T20:42:30;353.08;;;166.77;;
37284;SDS011;23172;53.550;9.964;2022-09-03T20:47:53;636.08;;;324.17;;
37284;SDS011;23172;53.550;9.964;2022-09-03T20:53:04;501.83;;;246.25;;
37284;SDS011;23172;53.550;9.964;2022-09-03T20:58:17;1369.22;;;634.92;;
37284;SDS011;23172;53.550;9.964;2022-09-03T21:03:27;973.60;;;532.40;;
37284;SDS011;23172;53.550;9.964;2022-09-03T21:14:18;508.25;;;266.27;;
37284;SDS011;23172;53.550;9.964;2022-09-03T21:19:33;268.40;;;117.18;;
37284;SDS011;23172;53.550;9.964;2022-09-03T21:24:45;301.52;;;116.72;;
37284;SDS011;23172;53.550;9.964;2022-09-03T21:29:55;171.65;;;68.22;;
37284;SDS011;23172;53.550;9.964;2022-09-03T21:35:02;170.38;;;69.28;;
37284;SDS011;23172;53.550;9.964;2022-09-03T21:40:12;274.15;;;105.75;;
37284;SDS011;23172;53.550;9.964;2022-09-03T21:45:19;239.52;;;94.10;;
37284;SDS011;23172;53.550;9.964;2022-09-03T21:50:28;262.15;;;98.07;;
37284;SDS011;23172;53.550;9.964;2022-09-03T21:55:41;216.15;;;99.60;;
37284;SDS011;23172;53.550;9.964;2022-09-03T22:00:55;194.40;;;76.28;;
37284;SDS011;23172;53.550;9.964;2022-09-03T22:06:05;191.05;;;71.80;;
37284;SDS011;23172;53.550;9.964;2022-09-03T22:11:15;172.70;;;54.67;;
37284;SDS011;23172;53.550;9.964;2022-09-03T22:16:28;230.60;;;79.82;;
37284;SDS011;23172;53.550;9.964;2022-09-03T22:21:35;204.55;;;70.30;;
37284;SDS011;23172;53.550;9.964;2022-09-03T22:26:46;194.60;;;62.05;;
37284;SDS011;23172;53.550;9.964;2022-09-03T22:31:56;181.63;;;55.15;;
37284;SDS011;23172;53.550;9.964;2022-09-03T22:37:03;190.02;;;59.00;;
37284;SDS011;23172;53.550;9.964;2022-09-03T22:42:16;199.05;;;58.92;;
37284;SDS011;23172;53.550;9.964;2022-09-03T22:47:36;185.88;;;63.20;;
37284;SDS011;23172;53.550;9.964;2022-09-03T22:52:47;167.23;;;57.58;;
37284;SDS011;23172;53.550;9.964;2022-09-03T22:57:56;124.60;;;46.10;;
37284;SDS011;23172;53.550;9.964;2022-09-03T23:03:06;170.05;;;61.70;;
37284;SDS011;23172;53.550;9.964;2022-09-03T23:08:10;146.93;;;52.72;;
37284;SDS011;23172;53.550;9.964;2022-09-03T23:13:15;136.73;;;52.95;;
37284;SDS011;23172;53.550;9.964;2022-09-03T23:18:23;144.45;;;52.10;;
37284;SDS011;23172;53.550;9.964;2022-09-03T23:23:28;154.70;;;48.17;;
37284;SDS011;23172;53.550;9.964;2022-09-03T23:28:32;181.88;;;56.03;;
37284;SDS011;23172;53.550;9.964;2022-09-03T23:33:39;158.48;;;55.40;;
37284;SDS011;23172;53.550;9.964;2022-09-03T23:38:46;181.15;;;57.00;;
37284;SDS011;23172;53.550;9.964;2022-09-03T23:44:02;143.93;;;57.97;;
37284;SDS011;23172;53.550;9.964;2022-09-03T23:49:31;187.48;;;55.47;;
37284;SDS011;23172;53.550;9.964;2022-09-03T23:54:41;187.95;;;59.38;;
37284;SDS011;23172;53.550;9.964;2022-09-03T23:59:52;214.63;;;66.88;;
